Time;durP1;ratioP1;P1;durP2;ratioP2;P2;SDS_P1;SDS_P2;PMS_P1;PMS_P2;Temp;Humidity;BMP_temperature;BMP_pressure;BME280_temperature;BME280_humidity;BME280_pressure;Samples;Min_cycle;Max_cycle;Signal;HPM_P1;HPM_P2
2023/12/29 00:02:06;;;;;;;4.13;1.63;;;10.40;99.90;;;;;;5043730;28;20270;-80
2023/12/29 00:04:33;;;;;;;4.57;1.67;;;10.30;99.90;;;;;;5050983;28;20195;-80
2023/12/29 00:07:00;;;;;;;6.80;1.60;;;10.30;99.90;;;;;;5054390;28;20203;-81
2023/12/29 00:09:26;;;;;;;4.50;1.60;;;10.40;99.90;;;;;;5047950;28;20199;-80
2023/12/29 00:11:54;;;;;;;5.47;1.90;;;10.40;99.90;;;;;;5054696;28;20215;-80
2023/12/29 00:14:22;;;;;;;7.13;1.67;;;10.40;99.90;;;;;;5047567;28;20752;-80
2023/12/29 00:16:49;;;;;;;6.53;1.47;;;10.40;99.90;;;;;;5052273;28;20207;-80
2023/12/29 00:19:16;;;;;;;1.80;1.03;;;10.40;99.90;;;;;;5053331;28;20666;-81
2023/12/29 00:21:42;;;;;;;5.43;1.53;;;10.40;99.90;;;;;;5044814;28;20221;-80
2023/12/29 00:24:09;;;;;;;3.73;1.40;;;10.40;99.90;;;;;;5045967;28;20210;-81
2023/12/29 00:26:36;;;;;;;5.30;1.53;;;10.40;99.90;;;;;;5052919;28;20224;-80
2023/12/29 00:29:03;;;;;;;7.43;1.40;;;10.40;99.90;;;;;;5043777;28;20556;-80
2023/12/29 00:31:31;;;;;;;4.20;1.60;;;10.40;99.90;;;;;;5042054;28;20218;-81
2023/12/29 00:33:58;;;;;;;5.03;1.40;;;10.40;99.90;;;;;;5037833;28;20196;-80
2023/12/29 00:36:25;;;;;;;8.23;1.70;;;10.40;99.90;;;;;;5041349;28;20199;-80
2023/12/29 00:38:52;;;;;;;3.77;1.20;;;10.50;99.90;;;;;;5044271;28;20250;-81
2023/12/29 00:41:19;;;;;;;5.83;1.47;;;10.50;99.90;;;;;;5043817;28;20230;-80
2023/12/29 00:43:46;;;;;;;6.10;2.47;;;10.50;99.90;;;;;;5043746;28;20203;-81
2023/12/29 00:46:15;;;;;;;2.90;2.00;;;10.50;99.90;;;;;;5045415;28;20672;-80
2023/12/29 00:48:43;;;;;;;5.10;1.27;;;10.50;99.90;;;;;;5045580;28;20206;-81
2023/12/29 00:51:10;;;;;;;3.17;1.03;;;10.60;99.90;;;;;;5039591;28;20212;-80
2023/12/29 00:53:37;;;;;;;2.20;1.37;;;10.60;99.90;;;;;;5046282;28;20227;-80
2023/12/29 00:56:10;;;;;;;4.43;1.73;;;10.60;99.90;;;;;;5046429;28;20218;-79
2023/12/29 00:58:36;;;;;;;4.93;1.47;;;10.60;99.90;;;;;;5045798;28;20198;-79
2023/12/29 01:01:03;;;;;;;3.10;1.17;;;10.60;99.90;;;;;;5055554;28;20195;-80
2023/12/29 01:03:30;;;;;;;6.37;1.83;;;10.60;99.90;;;;;;5037784;28;20219;-79
2023/12/29 01:05:58;;;;;;;7.37;1.60;;;10.60;99.90;;;;;;5043961;28;20569;-80
2023/12/29 01:08:25;;;;;;;3.17;1.30;;;10.60;99.90;;;;;;5045100;28;20225;-81
2023/12/29 01:10:52;;;;;;;3.50;1.30;;;10.60;99.90;;;;;;5035903;28;20266;-81
2023/12/29 01:13:19;;;;;;;3.90;1.37;;;10.60;99.90;;;;;;5043750;28;20222;-81
2023/12/29 01:15:45;;;;;;;4.40;1.60;;;10.50;99.90;;;;;;5052334;28;20229;-80
2023/12/29 01:18:12;;;;;;;2.93;1.43;;;10.40;99.90;;;;;;5054213;28;20207;-80
2023/12/29 01:20:40;;;;;;;3.53;1.50;;;10.40;99.90;;;;;;5049838;28;20217;-81
2023/12/29 01:23:09;;;;;;;7.17;1.90;;;10.40;99.90;;;;;;5052653;28;20620;-81
2023/12/29 01:25:35;;;;;;;6.80;1.67;;;10.50;99.90;;;;;;5053650;28;20202;-80
2023/12/29 01:28:02;;;;;;;3.83;1.20;;;10.50;99.90;;;;;;5052087;28;20195;-80
2023/12/29 01:30:29;;;;;;;6.77;1.60;;;10.50;99.90;;;;;;5047461;28;20199;-81
2023/12/29 01:32:56;;;;;;;5.57;1.40;;;10.40;99.90;;;;;;5051673;28;20219;-81
2023/12/29 01:35:22;;;;;;;1.90;1.10;;;10.50;99.90;;;;;;5052060;28;20238;-81
2023/12/29 01:37:49;;;;;;;4.10;1.27;;;10.40;99.90;;;;;;5044262;28;20214;-80
2023/12/29 01:40:17;;;;;;;6.23;1.70;;;10.50;99.90;;;;;;5044434;28;20202;-80
2023/12/29 01:42:44;;;;;;;4.33;1.40;;;10.40;99.90;;;;;;5038408;28;20227;-80
2023/12/29 01:45:22;;;;;;;3.27;1.20;;;10.50;99.90;;;;;;5047956;28;20198;-79
2023/12/29 01:47:49;;;;;;;11.87;2.33;;;10.50;99.90;;;;;;5041922;28;20217;-80
2023/12/29 01:50:16;;;;;;;4.87;1.40;;;10.50;99.90;;;;;;5045209;28;20207;-81
2023/12/29 01:52:46;;;;;;;10.47;1.70;;;10.40;99.90;;;;;;5043541;28;20227;-79
2023/12/29 01:55:19;;;;;;;4.33;1.40;;;10.30;1.00;;;;;;5037093;28;20242;-81
2023/12/29 01:57:47;;;;;;;3.37;1.27;;;10.20;1.00;;;;;;5049369;28;20198;-80
2023/12/29 02:00:16;;;;;;;6.00;1.70;;;10.20;1.00;;;;;;5046533;28;20214;-81
2023/12/29 02:02:43;;;;;;;3.23;1.43;;;10.20;1.00;;;;;;5051462;28;20228;-81
2023/12/29 02:05:14;;;;;;;4.33;1.43;;;10.20;1.00;;;;;;5044675;28;20662;-81
2023/12/29 02:07:41;;;;;;;2.97;1.20;;;10.20;1.00;;;;;;5041549;28;20210;-80
2023/12/29 02:10:09;;;;;;;3.37;1.47;;;10.30;1.00;;;;;;5046658;28;20656;-80
2023/12/29 02:12:37;;;;;;;3.47;1.13;;;10.30;1.00;;;;;;5049346;28;20223;-81
2023/12/29 02:15:05;;;;;;;3.63;1.00;;;10.40;1.00;;;;;;5048097;28;20218;-80
2023/12/29 02:17:39;;;;;;;3.50;1.20;;;10.30;1.00;;;;;;5044304;28;20206;-80
2023/12/29 02:20:08;;;;;;;7.90;1.40;;;10.40;1.00;;;;;;5045459;28;20202;-80
2023/12/29 02:22:34;;;;;;;2.30;1.20;;;10.30;1.00;;;;;;5049566;28;20233;-80
2023/12/29 02:25:03;;;;;;;6.30;2.93;;;10.40;1.00;;;;;;5051685;28;20200;-80
2023/12/29 02:27:40;;;;;;;4.70;1.23;;;10.40;1.00;;;;;;5048439;28;20598;-81
2023/12/29 02:30:12;;;;;;;2.80;0.93;;;10.40;1.00;;;;;;5046247;28;20202;-80
2023/12/29 02:32:41;;;;;;;3.27;1.33;;;10.40;1.00;;;;;;5049581;28;20273;-80
2023/12/29 02:35:12;;;;;;;3.40;1.10;;;10.40;1.00;;;;;;5045798;28;20275;-80
2023/12/29 02:37:40;;;;;;;3.10;1.17;;;10.40;1.00;;;;;;5052368;28;20213;-80
2023/12/29 02:40:09;;;;;;;3.00;1.10;;;10.40;1.00;;;;;;5045108;28;20196;-81
2023/12/29 02:42:36;;;;;;;5.70;1.30;;;10.40;1.00;;;;;;5050846;28;20219;-81
2023/12/29 02:45:03;;;;;;;2.83;1.00;;;10.30;1.00;;;;;;5037929;28;20600;-80
2023/12/29 02:47:30;;;;;;;3.33;1.20;;;10.40;1.00;;;;;;5048614;28;20286;-80
2023/12/29 02:49:57;;;;;;;6.20;1.50;;;10.40;1.00;;;;;;5038387;28;20245;-80
2023/12/29 02:52:24;;;;;;;2.83;1.40;;;10.40;1.00;;;;;;5045339;28;20240;-80
2023/12/29 02:54:51;;;;;;;5.53;1.40;;;10.50;1.00;;;;;;5050116;28;20203;-80
2023/12/29 02:57:19;;;;;;;2.73;1.10;;;10.50;1.00;;;;;;5051722;28;20200;-80
2023/12/29 02:59:45;;;;;;;3.33;1.10;;;10.40;1.00;;;;;;5057340;28;20206;-81
2023/12/29 03:02:12;;;;;;;4.17;1.30;;;10.50;1.00;;;;;;5040353;28;20227;-81
2023/12/29 03:04:39;;;;;;;2.53;0.87;;;10.60;1.00;;;;;;5042582;28;20198;-80
2023/12/29 03:07:06;;;;;;;2.83;1.27;;;10.60;1.00;;;;;;5048272;28;20642;-80
2023/12/29 03:09:32;;;;;;;2.10;1.10;;;10.60;1.00;;;;;;5044731;28;20267;-80
2023/12/29 03:11:59;;;;;;;5.20;1.00;;;10.60;1.00;;;;;;5042499;28;20226;-81
2023/12/29 03:14:27;;;;;;;5.40;1.40;;;10.60;1.00;;;;;;5047859;28;20203;-80
2023/12/29 03:16:54;;;;;;;2.80;0.83;;;10.60;1.00;;;;;;5050517;28;20226;-79
2023/12/29 03:19:21;;;;;;;5.97;1.30;;;10.50;1.00;;;;;;5045351;28;20267;-81
2023/12/29 03:21:48;;;;;;;2.97;1.30;;;10.60;1.00;;;;;;5037949;28;20222;-79
2023/12/29 03:24:15;;;;;;;4.50;1.60;;;10.50;1.00;;;;;;5044045;28;20297;-81
2023/12/29 03:26:41;;;;;;;4.17;1.00;;;10.60;1.00;;;;;;5037562;28;20204;-81
2023/12/29 03:29:08;;;;;;;5.33;1.13;;;10.60;1.00;;;;;;5049331;28;20253;-80
2023/12/29 03:31:36;;;;;;;3.33;1.27;;;10.60;1.00;;;;;;5049854;28;20209;-80
2023/12/29 03:34:03;;;;;;;2.87;1.13;;;10.60;1.00;;;;;;5044157;28;20199;-80
2023/12/29 03:36:30;;;;;;;2.93;1.23;;;10.60;1.00;;;;;;5045313;28;20237;-79
2023/12/29 03:38:57;;;;;;;2.97;1.10;;;10.60;1.00;;;;;;5047364;28;20670;-80
2023/12/29 03:41:23;;;;;;;4.97;1.00;;;10.70;1.00;;;;;;5047718;28;20669;-80
2023/12/29 03:43:50;;;;;;;2.37;0.70;;;10.60;1.00;;;;;;5040101;28;20712;-80
2023/12/29 03:46:18;;;;;;;2.67;0.93;;;10.60;1.00;;;;;;5042783;28;20203;-80
2023/12/29 03:48:47;;;;;;;4.47;1.27;;;10.50;1.00;;;;;;5046046;28;20203;-80
2023/12/29 03:51:14;;;;;;;1.37;0.83;;;10.40;1.00;;;;;;5039011;28;20223;-81
2023/12/29 03:53:41;;;;;;;3.47;1.17;;;10.30;1.00;;;;;;5039012;28;20718;-79
2023/12/29 03:56:08;;;;;;;3.57;0.97;;;10.30;1.00;;;;;;5045666;28;20305;-80
2023/12/29 03:58:35;;;;;;;2.17;0.90;;;10.20;99.90;;;;;;5047334;28;20206;-81
2023/12/29 04:01:02;;;;;;;3.77;0.90;;;10.10;99.90;;;;;;5047764;28;20195;-80
2023/12/29 04:03:29;;;;;;;2.40;0.73;;;10.10;99.90;;;;;;5038001;28;20302;-80
2023/12/29 04:05:57;;;;;;;2.30;1.10;;;10.00;99.90;;;;;;5058339;28;20645;-81
2023/12/29 04:08:24;;;;;;;3.83;1.60;;;10.00;99.90;;;;;;5045844;28;20579;-80
2023/12/29 04:10:51;;;;;;;2.80;0.97;;;10.00;1.00;;;;;;5051034;28;20579;-80
2023/12/29 04:13:17;;;;;;;1.57;1.00;;;9.90;1.00;;;;;;5044787;28;20219;-81
2023/12/29 04:15:44;;;;;;;4.33;1.00;;;9.80;1.00;;;;;;5042207;28;20225;-81
2023/12/29 04:18:11;;;;;;;3.03;1.07;;;9.70;1.00;;;;;;5044870;28;20199;-80
2023/12/29 04:20:38;;;;;;;3.17;0.87;;;9.70;1.00;;;;;;5056238;28;20577;-81
2023/12/29 04:23:08;;;;;;;2.17;1.00;;;9.80;1.00;;;;;;5046272;28;20218;-81
2023/12/29 04:25:34;;;;;;;1.30;0.90;;;9.60;17.50;;;;;;5050679;28;20199;-81
2023/12/29 04:28:01;;;;;;;2.47;0.97;;;9.70;6.80;;;;;;5049088;28;20204;-81
2023/12/29 04:30:28;;;;;;;3.53;0.90;;;9.80;1.00;;;;;;5043041;28;20199;-80
2023/12/29 04:32:55;;;;;;;1.40;0.90;;;9.80;1.00;;;;;;5055216;28;20223;-81
2023/12/29 04:35:22;;;;;;;2.60;0.87;;;9.80;1.00;;;;;;5040317;28;20212;-79
2023/12/29 04:37:49;;;;;;;5.77;1.17;;;9.80;1.00;;;;;;5048192;28;20207;-81
2023/12/29 04:40:17;;;;;;;3.60;1.07;;;9.70;1.00;;;;;;5050544;28;20206;-80
2023/12/29 04:42:44;;;;;;;1.57;1.20;;;9.60;1.00;;;;;;5049964;28;20592;-80
2023/12/29 04:45:11;;;;;;;2.73;1.07;;;9.70;1.00;;;;;;5047984;28;20209;-80
2023/12/29 04:47:38;;;;;;;5.17;0.93;;;9.70;1.00;;;;;;5040536;28;20277;-80
2023/12/29 04:50:07;;;;;;;2.50;0.77;;;9.80;1.00;;;;;;5039890;28;22007;-79
2023/12/29 04:52:34;;;;;;;3.20;1.00;;;9.80;1.00;;;;;;5051643;28;20770;-79
2023/12/29 04:55:00;;;;;;;2.63;0.77;;;9.90;1.00;;;;;;5050256;28;20207;-79
2023/12/29 04:57:29;;;;;;;3.70;0.80;;;9.90;1.00;;;;;;5049387;28;20519;-79
2023/12/29 04:59:55;;;;;;;1.10;0.60;;;9.90;1.00;;;;;;5042642;28;20293;-79
2023/12/29 05:02:22;;;;;;;2.53;1.57;;;9.90;99.90;;;;;;5041314;28;20632;-79
2023/12/29 05:04:49;;;;;;;6.17;1.00;;;9.90;1.00;;;;;;5037801;28;20584;-80
2023/12/29 05:07:16;;;;;;;2.80;0.50;;;10.00;1.00;;;;;;5046976;28;20199;-80
2023/12/29 05:09:43;;;;;;;2.03;1.23;;;9.90;1.00;;;;;;5048001;28;20210;-79
2023/12/29 05:12:10;;;;;;;4.20;1.07;;;9.80;1.00;;;;;;5058634;28;20229;-80
2023/12/29 05:14:38;;;;;;;1.90;0.80;;;9.80;1.00;;;;;;5042245;28;20203;-79
2023/12/29 05:17:04;;;;;;;2.33;1.00;;;9.80;1.00;;;;;;5041356;28;20222;-79
2023/12/29 05:19:31;;;;;;;3.17;1.13;;;9.80;1.00;;;;;;5048894;28;20582;-80
2023/12/29 05:21:58;;;;;;;1.33;0.93;;;9.70;99.90;;;;;;5049438;28;20558;-80
2023/12/29 05:24:25;;;;;;;1.90;0.80;;;9.70;1.00;;;;;;5048862;28;20589;-80
2023/12/29 05:26:52;;;;;;;2.70;1.37;;;9.70;99.90;;;;;;5039848;28;20569;-79
2023/12/29 05:29:18;;;;;;;3.23;1.43;;;9.70;99.90;;;;;;5039314;28;20628;-80
2023/12/29 05:31:47;;;;;;;4.67;1.57;;;9.70;99.90;;;;;;5041882;28;20584;-80
2023/12/29 05:34:13;;;;;;;4.57;1.50;;;9.60;1.00;;;;;;5040282;28;20214;-80
2023/12/29 05:36:42;;;;;;;3.13;1.40;;;9.50;1.00;;;;;;5042633;28;20223;-78
2023/12/29 05:39:08;;;;;;;2.47;1.47;;;9.50;1.00;;;;;;5040228;28;20219;-79
2023/12/29 05:41:35;;;;;;;1.23;1.10;;;9.60;1.00;;;;;;5046503;28;20235;-79
2023/12/29 05:44:02;;;;;;;4.27;2.90;;;9.60;1.00;;;;;;5050921;28;20939;-80
2023/12/29 05:46:29;;;;;;;2.83;1.47;;;9.60;1.00;;;;;;5047932;28;20238;-79
2023/12/29 05:48:57;;;;;;;5.17;1.13;;;9.60;1.00;;;;;;5046347;28;20231;-80
2023/12/29 05:51:24;;;;;;;5.03;1.20;;;9.60;1.00;;;;;;5055985;28;20222;-79
2023/12/29 05:53:51;;;;;;;3.07;1.17;;;9.60;1.00;;;;;;5038516;28;20227;-80
2023/12/29 05:56:18;;;;;;;3.17;1.20;;;9.70;1.00;;;;;;5042565;28;20306;-80
2023/12/29 05:58:45;;;;;;;1.33;1.23;;;9.60;1.00;;;;;;5043624;28;20732;-80
2023/12/29 06:01:11;;;;;;;2.53;1.30;;;9.70;1.00;;;;;;5045105;28;20234;-80
2023/12/29 06:03:38;;;;;;;2.20;1.30;;;9.70;1.00;;;;;;5046600;28;20285;-80
2023/12/29 06:06:07;;;;;;;2.03;1.50;;;9.70;1.00;;;;;;5054053;28;20234;-81
2023/12/29 06:08:34;;;;;;;5.63;1.40;;;9.70;1.00;;;;;;5042259;28;20214;-80
2023/12/29 06:11:01;;;;;;;3.03;1.60;;;9.70;1.00;;;;;;5045448;28;20285;-80
2023/12/29 06:13:30;;;;;;;3.83;1.60;;;9.70;1.00;;;;;;5041315;28;20234;-79
2023/12/29 06:15:56;;;;;;;3.80;1.60;;;9.80;1.00;;;;;;5037825;28;20195;-79
2023/12/29 06:18:24;;;;;;;3.10;1.60;;;9.80;1.00;;;;;;5045535;28;20585;-79
2023/12/29 06:20:51;;;;;;;3.50;1.30;;;9.80;1.00;;;;;;5044318;28;20205;-79
2023/12/29 06:23:20;;;;;;;7.27;2.23;;;9.90;99.90;;;;;;5042993;28;20317;-80
2023/12/29 06:25:47;;;;;;;3.13;2.07;;;9.90;99.90;;;;;;5044715;28;20853;-80
2023/12/29 06:28:14;;;;;;;3.07;1.67;;;9.90;99.90;;;;;;5048534;28;20387;-80
2023/12/29 06:30:41;;;;;;;5.50;2.00;;;9.90;99.90;;;;;;5041005;28;20700;-80
2023/12/29 06:33:08;;;;;;;6.90;2.20;;;9.90;99.90;;;;;;5045493;28;20223;-79
2023/12/29 06:35:35;;;;;;;2.97;1.63;;;10.00;99.90;;;;;;5043145;28;20210;-80
2023/12/29 06:38:01;;;;;;;8.47;2.10;;;9.90;99.90;;;;;;5047429;28;20219;-79
2023/12/29 06:40:30;;;;;;;4.47;2.00;;;9.90;36.80;;;;;;5051968;28;20209;-78
2023/12/29 06:42:56;;;;;;;5.80;2.50;;;10.00;1.00;;;;;;5050857;28;20313;-79
2023/12/29 06:45:23;;;;;;;8.43;2.47;;;10.00;1.00;;;;;;5044188;28;20222;-79
2023/12/29 06:47:50;;;;;;;7.83;1.93;;;9.90;1.00;;;;;;5050400;28;20198;-79
2023/12/29 06:50:17;;;;;;;9.20;2.07;;;10.00;1.00;;;;;;5041863;28;20235;-79
2023/12/29 06:52:44;;;;;;;5.57;2.30;;;10.10;1.00;;;;;;5054232;28;20230;-79
2023/12/29 06:55:11;;;;;;;5.87;2.50;;;10.00;1.00;;;;;;5054361;28;20262;-80
2023/12/29 06:57:39;;;;;;;6.80;2.70;;;10.00;1.00;;;;;;5046960;28;20283;-80
2023/12/29 07:00:07;;;;;;;7.00;2.10;;;10.00;1.00;;;;;;5033413;28;20269;-80
2023/12/29 07:02:34;;;;;;;4.67;2.10;;;10.00;1.00;;;;;;5034200;28;20237;-81
2023/12/29 07:05:01;;;;;;;2.93;1.67;;;10.10;1.00;;;;;;5040488;28;20285;-80
2023/12/29 07:07:28;;;;;;;2.93;1.40;;;10.30;1.00;;;;;;5038153;28;20650;-80
2023/12/29 07:09:54;;;;;;;4.67;1.60;;;10.20;1.00;;;;;;5047265;28;20362;-81
2023/12/29 07:12:21;;;;;;;10.50;2.10;;;10.30;1.00;;;;;;5042083;28;20215;-80
2023/12/29 07:14:50;;;;;;;7.23;2.00;;;10.40;1.00;;;;;;5036587;28;20200;-80
2023/12/29 07:17:16;;;;;;;5.00;1.80;;;10.30;1.00;;;;;;5049648;28;20309;-81
2023/12/29 07:19:43;;;;;;;5.87;2.10;;;10.30;1.00;;;;;;5064374;28;20710;-79
2023/12/29 07:22:10;;;;;;;5.23;1.90;;;10.40;99.90;;;;;;5047733;28;20314;-80
2023/12/29 07:24:37;;;;;;;3.03;1.43;;;10.40;99.90;;;;;;5047641;28;20225;-79
2023/12/29 07:27:05;;;;;;;4.63;1.90;;;10.50;99.90;;;;;;5044026;28;20246;-79
2023/12/29 07:29:32;;;;;;;3.83;1.87;;;10.40;99.90;;;;;;5057351;28;20195;-80
2023/12/29 07:32:00;;;;;;;7.27;1.97;;;10.40;99.90;;;;;;5046527;28;20219;-80
2023/12/29 07:34:27;;;;;;;4.93;1.90;;;10.40;99.90;;;;;;5049134;28;20270;-80
2023/12/29 07:36:54;;;;;;;7.03;1.83;;;10.40;99.90;;;;;;5044681;28;20255;-81
2023/12/29 07:39:21;;;;;;;6.80;2.30;;;10.40;99.90;;;;;;5061016;28;20199;-80
2023/12/29 07:41:48;;;;;;;5.30;1.93;;;10.50;99.90;;;;;;5049407;28;20317;-80
2023/12/29 07:44:15;;;;;;;6.67;1.53;;;10.40;99.90;;;;;;5046570;28;20208;-81
2023/12/29 07:46:42;;;;;;;5.90;2.60;;;10.50;99.90;;;;;;5049059;28;20198;-80
2023/12/29 07:49:10;;;;;;;5.37;2.10;;;10.40;99.90;;;;;;5045664;28;20289;-80
2023/12/29 07:51:40;;;;;;;5.80;1.67;;;10.50;52.00;;;;;;5061092;28;20215;-79
2023/12/29 07:54:07;;;;;;;8.60;2.43;;;10.50;24.60;;;;;;5048558;28;20198;-79
2023/12/29 07:56:36;;;;;;;6.03;2.70;;;10.60;1.00;;;;;;5050030;28;20209;-81
2023/12/29 07:59:03;;;;;;;6.17;1.60;;;10.70;1.00;;;;;;5055883;28;20679;-79
2023/12/29 08:01:30;;;;;;;8.47;2.07;;;10.60;1.00;;;;;;5047304;28;20265;-79
2023/12/29 08:03:57;;;;;;;7.70;2.07;;;10.60;1.00;;;;;;5049665;28;20200;-80
2023/12/29 08:06:25;;;;;;;7.37;1.87;;;10.70;1.00;;;;;;5045538;28;20583;-81
2023/12/29 08:08:52;;;;;;;8.00;2.40;;;10.60;1.00;;;;;;5046058;28;20206;-81
2023/12/29 08:11:19;;;;;;;8.67;2.60;;;10.70;1.00;;;;;;5068837;28;20198;-82
2023/12/29 08:13:47;;;;;;;3.73;1.97;;;10.60;1.00;;;;;;5058613;28;20274;-82
2023/12/29 08:16:14;;;;;;;7.73;2.10;;;10.60;1.00;;;;;;5057964;28;20206;-81
2023/12/29 08:18:41;;;;;;;9.73;3.00;;;10.60;1.00;;;;;;5040114;28;20219;-82
2023/12/29 08:21:08;;;;;;;7.00;2.50;;;10.70;1.00;;;;;;5046345;28;20684;-81
2023/12/29 08:23:36;;;;;;;8.20;2.37;;;10.70;1.00;;;;;;5042162;28;20216;-80
2023/12/29 08:26:04;;;;;;;8.97;2.10;;;10.70;1.00;;;;;;5046105;28;20576;-82
2023/12/29 08:28:31;;;;;;;5.90;1.93;;;10.70;1.00;;;;;;5042110;28;20282;-81
2023/12/29 08:30:57;;;;;;;5.37;2.40;;;10.70;1.00;;;;;;5036441;28;20199;-81
2023/12/29 08:33:24;;;;;;;3.07;1.50;;;10.70;1.00;;;;;;5042498;28;20220;-80
2023/12/29 08:35:51;;;;;;;7.43;2.00;;;10.80;1.00;;;;;;5051993;28;20219;-81
2023/12/29 08:38:18;;;;;;;3.77;1.50;;;10.80;1.00;;;;;;5052065;28;20227;-81
2023/12/29 08:40:46;;;;;;;6.67;2.23;;;10.80;1.00;;;;;;5052554;28;20202;-82
2023/12/29 08:43:13;;;;;;;6.83;1.87;;;10.80;1.00;;;;;;5049985;28;20317;-82
2023/12/29 08:45:41;;;;;;;5.23;2.00;;;10.70;1.00;;;;;;5049094;28;20200;-81
2023/12/29 08:48:08;;;;;;;7.87;1.87;;;10.80;1.00;;;;;;5045065;28;20238;-81
2023/12/29 08:50:35;;;;;;;6.23;1.83;;;10.80;1.00;;;;;;5055076;28;20206;-81
2023/12/29 08:53:01;;;;;;;6.37;2.67;;;10.90;1.00;;;;;;5046828;28;20231;-80
2023/12/29 08:55:28;;;;;;;4.03;2.17;;;10.90;1.00;;;;;;5056948;28;20292;-81
2023/12/29 08:57:56;;;;;;;8.70;2.47;;;10.90;1.00;;;;;;5066345;28;20585;-81
2023/12/29 09:00:23;;;;;;;6.20;1.93;;;10.90;1.00;;;;;;5058027;28;20203;-82
2023/12/29 09:02:50;;;;;;;5.20;1.93;;;10.80;1.00;;;;;;5063318;28;20222;-81
2023/12/29 09:05:17;;;;;;;6.53;1.90;;;10.90;1.00;;;;;;5066351;28;20212;-80
2023/12/29 09:07:44;;;;;;;9.77;2.23;;;10.90;1.00;;;;;;5069901;28;20202;-80
2023/12/29 09:10:12;;;;;;;4.27;1.63;;;11.00;1.00;;;;;;5056755;28;20218;-82
2023/12/29 09:12:39;;;;;;;9.63;2.40;;;10.90;1.00;;;;;;5067073;28;20301;-82
2023/12/29 09:15:08;;;;;;;7.60;2.47;;;10.90;1.00;;;;;;5043539;28;20619;-84
2023/12/29 09:17:35;;;;;;;7.93;2.23;;;10.80;1.00;;;;;;5048423;28;20775;-82
2023/12/29 09:20:03;;;;;;;6.17;1.90;;;10.80;1.00;;;;;;5043316;28;20577;-81
2023/12/29 09:22:29;;;;;;;6.03;2.00;;;10.80;1.00;;;;;;5049503;28;20250;-82
2023/12/29 09:24:56;;;;;;;10.30;1.90;;;10.80;1.00;;;;;;5046403;28;20195;-80
2023/12/29 09:27:23;;;;;;;5.87;1.47;;;10.90;1.00;;;;;;5049213;28;20206;-81
2023/12/29 09:29:51;;;;;;;8.17;2.30;;;11.00;1.00;;;;;;5044232;28;20204;-82
2023/12/29 09:32:19;;;;;;;4.33;1.90;;;11.00;1.00;;;;;;5048786;28;20223;-81
2023/12/29 09:34:46;;;;;;;4.03;1.40;;;11.00;1.00;;;;;;5047157;28;20215;-80
2023/12/29 09:37:12;;;;;;;10.00;2.13;;;10.90;1.00;;;;;;5039560;28;20219;-81
2023/12/29 09:39:39;;;;;;;5.17;1.80;;;10.80;1.00;;;;;;5050180;28;20203;-80
2023/12/29 09:42:08;;;;;;;10.63;1.70;;;10.70;1.00;;;;;;5041088;28;20220;-81
2023/12/29 09:44:37;;;;;;;6.77;2.57;;;10.50;1.00;;;;;;5044054;28;20206;-81
2023/12/29 09:47:05;;;;;;;4.47;1.37;;;10.40;89.00;;;;;;5044539;28;20215;-81
2023/12/29 09:49:39;;;;;;;3.33;1.60;;;10.30;1.00;;;;;;5042862;28;20207;-81
2023/12/29 09:52:09;;;;;;;4.50;1.20;;;10.20;99.90;;;;;;5054201;28;20226;-80
2023/12/29 09:54:37;;;;;;;8.93;1.70;;;10.00;1.00;;;;;;5047593;28;20198;-80
2023/12/29 09:57:05;;;;;;;3.33;1.07;;;9.80;1.00;;;;;;5053521;28;20198;-81
2023/12/29 09:59:36;;;;;;;4.60;1.30;;;9.70;1.00;;;;;;5055839;28;20220;-80
2023/12/29 10:02:05;;;;;;;2.57;1.33;;;9.60;1.00;;;;;;5049669;28;20398;-80
2023/12/29 10:04:35;;;;;;;5.53;1.60;;;9.50;1.00;;;;;;5038338;28;20206;-81
2023/12/29 10:07:06;;;;;;;4.27;1.60;;;9.50;1.00;;;;;;5060517;28;20704;-80
2023/12/29 10:09:35;;;;;;;4.40;1.70;;;9.40;1.00;;;;;;5039105;28;20198;-82
2023/12/29 10:12:04;;;;;;;4.13;1.67;;;9.40;1.00;;;;;;5054957;28;20227;-82
2023/12/29 10:14:45;;;;;;;4.20;1.50;;;9.30;99.90;;;;;;5049029;28;20204;-80
2023/12/29 10:17:24;;;;;;;5.10;2.00;;;9.30;1.00;;;;;;5057693;28;20199;-84
2023/12/29 10:20:03;;;;;;;6.30;2.20;;;9.20;99.90;;;;;;5034743;28;20209;-81
2023/12/29 10:22:38;;;;;;;3.93;2.17;;;9.20;32.00;;;;;;5034936;28;20223;-81
2023/12/29 10:25:06;;;;;;;2.70;1.60;;;9.20;1.00;;;;;;5034674;28;20194;-83
2023/12/29 10:27:33;;;;;;;2.47;1.47;;;9.20;58.40;;;;;;5049558;28;20210;-81
2023/12/29 10:30:00;;;;;;;2.47;1.30;;;9.20;1.00;;;;;;5035748;28;20199;-81
2023/12/29 10:32:29;;;;;;;5.17;1.43;;;9.20;99.90;;;;;;5035415;28;20223;-81
2023/12/29 10:35:09;;;;;;;4.27;1.47;;;9.30;1.00;;;;;;5037352;28;20204;-82
2023/12/29 10:37:37;;;;;;;3.97;1.33;;;9.30;99.90;;;;;;5046344;28;20657;-81
2023/12/29 10:40:05;;;;;;;1.40;0.83;;;9.30;1.00;;;;;;5054199;28;20203;-81
2023/12/29 10:42:32;;;;;;;1.87;0.90;;;9.30;1.00;;;;;;5054981;28;20598;-81
2023/12/29 10:45:10;;;;;;;3.33;1.13;;;9.40;1.00;;;;;;5034947;28;20727;-80
2023/12/29 10:47:38;;;;;;;5.47;1.10;;;9.40;1.00;;;;;;5034394;28;20215;-80
2023/12/29 10:50:07;;;;;;;3.37;1.30;;;9.40;99.90;;;;;;5050976;28;20950;-80
2023/12/29 10:52:34;;;;;;;4.30;1.37;;;9.50;1.00;;;;;;5034706;28;20266;-81
2023/12/29 10:55:09;;;;;;;2.30;1.30;;;9.50;1.00;;;;;;5049708;28;20222;-82
2023/12/29 10:57:36;;;;;;;1.10;0.93;;;9.50;1.00;;;;;;5056634;28;20689;-79
2023/12/29 11:00:05;;;;;;;2.43;1.07;;;9.60;1.00;;;;;;5035084;28;20295;-80
2023/12/29 11:02:33;;;;;;;1.87;0.87;;;9.70;1.00;;;;;;5053018;28;20311;-79
2023/12/29 11:05:04;;;;;;;3.83;1.30;;;9.70;1.00;;;;;;5045382;28;20231;-79
2023/12/29 11:07:40;;;;;;;2.63;1.00;;;9.70;99.90;;;;;;5040536;28;20227;-79
2023/12/29 11:10:09;;;;;;;4.10;1.20;;;9.80;1.00;;;;;;5037596;28;20199;-81
2023/12/29 11:12:37;;;;;;;2.77;1.27;;;9.90;1.00;;;;;;5056956;28;20218;-81
2023/12/29 11:15:05;;;;;;;2.33;1.20;;;9.90;1.00;;;;;;5057929;28;20287;-81
2023/12/29 11:17:34;;;;;;;1.90;0.90;;;9.90;1.00;;;;;;5057511;28;20294;-79
2023/12/29 11:20:03;;;;;;;2.50;0.73;;;10.00;99.90;;;;;;5064182;28;20207;-80
2023/12/29 11:22:31;;;;;;;2.40;0.77;;;10.00;1.00;;;;;;5057250;28;20278;-81
2023/12/29 11:25:00;;;;;;;1.83;0.90;;;10.00;6.70;;;;;;5056926;28;20198;-79
2023/12/29 11:27:29;;;;;;;2.00;0.60;;;10.00;1.00;;;;;;5056374;28;20718;-81
2023/12/29 11:29:57;;;;;;;2.27;0.60;;;10.20;1.00;;;;;;5048162;28;20886;-80
2023/12/29 11:32:30;;;;;;;4.17;0.67;;;10.20;1.00;;;;;;5052846;28;20219;-82
2023/12/29 11:35:07;;;;;;;3.90;1.10;;;10.30;99.90;;;;;;5036929;28;20204;-80
2023/12/29 11:37:48;;;;;;;3.03;0.83;;;10.30;99.90;;;;;;5058380;28;20699;-81
2023/12/29 11:40:21;;;;;;;0.90;0.63;;;10.30;99.90;;;;;;5052392;28;20211;-83
2023/12/29 11:42:53;;;;;;;2.80;1.00;;;10.40;99.90;;;;;;5051753;28;20230;-82
2023/12/29 11:45:26;;;;;;;1.77;1.13;;;10.50;29.80;;;;;;5039380;28;20207;-81
2023/12/29 11:47:55;;;;;;;2.17;1.40;;;10.50;99.90;;;;;;5046575;28;20206;-82
2023/12/29 11:50:30;;;;;;;1.10;0.67;;;10.50;1.00;;;;;;5063155;28;20210;-81
2023/12/29 11:52:57;;;;;;;2.27;1.03;;;10.60;1.00;;;;;;5047411;28;20230;-81
2023/12/29 11:55:30;;;;;;;3.63;1.03;;;10.70;1.00;;;;;;5048139;28;20583;-82
2023/12/29 11:57:57;;;;;;;2.30;0.77;;;10.70;1.00;;;;;;5055769;28;20298;-81
2023/12/29 12:00:43;;;;;;;3.10;1.60;;;10.80;1.00;;;;;;5052129;28;20207;-81
2023/12/29 12:03:19;;;;;;;2.00;1.23;;;10.80;1.00;;;;;;5054995;28;20230;-81
2023/12/29 12:05:47;;;;;;;0.70;0.70;;;10.80;1.00;;;;;;5037092;28;20209;-81
2023/12/29 12:08:28;;;;;;;4.47;1.20;;;10.80;1.00;;;;;;5039819;28;20203;-81
2023/12/29 12:10:56;;;;;;;2.13;1.00;;;10.80;1.00;;;;;;5051400;28;20953;-82
2023/12/29 12:13:45;;;;;;;1.53;1.13;;;10.80;1.00;;;;;;5046933;28;20220;-81
2023/12/29 12:16:50;;;;;;;2.90;1.10;;;10.80;1.00;;;;;;5055716;28;20199;-81
2023/12/29 12:19:18;;;;;;;1.33;0.50;;;10.80;1.00;;;;;;5037115;28;20705;-80
2023/12/29 12:21:48;;;;;;;2.50;0.83;;;10.80;99.90;;;;;;5055498;28;20219;-81
2023/12/29 12:24:16;;;;;;;1.07;0.80;;;10.70;1.00;;;;;;5056953;28;20229;-81
2023/12/29 12:26:44;;;;;;;1.53;0.50;;;10.70;99.90;;;;;;5056209;28;20260;-80
2023/12/29 12:29:13;;;;;;;4.63;1.10;;;10.70;99.90;;;;;;5056015;28;20558;-81
2023/12/29 12:31:53;;;;;;;2.07;0.90;;;10.70;99.90;;;;;;5054526;28;20291;-80
2023/12/29 12:34:20;;;;;;;1.13;0.30;;;10.70;1.00;;;;;;5036689;28;20222;-82
2023/12/29 12:36:50;;;;;;;1.40;0.33;;;10.70;99.90;;;;;;5047148;28;20548;-81
2023/12/29 12:39:17;;;;;;;4.33;0.80;;;10.70;99.90;;;;;;5055964;28;20625;-80
2023/12/29 12:41:45;;;;;;;0.40;0.40;;;10.70;99.90;;;;;;5058273;28;20222;-81
2023/12/29 12:44:13;;;;;;;1.00;0.40;;;10.70;1.00;;;;;;5070268;28;20256;-80
2023/12/29 12:46:42;;;;;;;0.50;0.50;;;10.90;99.90;;;;;;5049442;28;20262;-80
2023/12/29 12:49:09;;;;;;;0.50;0.50;;;11.00;99.90;;;;;;5055935;28;20199;-80
2023/12/29 12:51:36;;;;;;;0.77;0.40;;;10.90;99.90;;;;;;5054289;28;20210;-80
2023/12/29 12:54:03;;;;;;;0.50;0.50;;;11.00;99.90;;;;;;5054729;28;20203;-80
2023/12/29 12:56:31;;;;;;;0.73;0.37;;;10.90;99.90;;;;;;5052257;28;20202;-79
2023/12/29 12:59:01;;;;;;;0.30;0.27;;;10.90;99.90;;;;;;5039850;28;20294;-79
2023/12/29 13:01:29;;;;;;;2.53;0.37;;;10.90;99.90;;;;;;5035029;28;20195;-81